KIFP/IFP METAR and TAF weather

Enter ICAO airport designator
Station Type Date Time Source
KIFP METAR 2022/07/01 01:35 UTC NOAA

KIFP 010135Z AUTO 19014KT 10SM CLR 42/05 A2972 RMK AO2


Station Type Date Time Source
KIFP Decoded METAR 2022/07/01 01:35 UTC NOAA

Bullhead City, Laughlin/Bullhead International Airport, AZ, United States (KIFP) 35-09-27N 114-33-34W
Jun 30, 2022 - 09:35 PM EDT / 2022.07.01 0135 UTC
Wind: from the S (190 degrees) at 16 MPH (14 KT):0
Visibility: 10 mile(s):0
Sky conditions: clear
Temperature: 107 F (42 C)
Dew Point: 41 F (5 C)
Relative Humidity: 10%
Pressure (altimeter): 29.72 in. Hg (1006 hPa)
ob: KIFP 010135Z AUTO 19014KT 10SM CLR 42/05 A2972 RMK AO2
cycle: 1

Station Type Date Time Source
KIFP TAF 2022/06/30 21:57 UTC NOAA

TAF
AMD KIFP 302054Z 3021/0118 19011KT P6SM FEW140
FM010400 16008KT P6SM SKC
FM011100 VRB05KT P6SM SKC
FM011700 20011KT P6SM SKC

Example: see airport list